CYFS

Details ICAO CYFS (YFS)
Name FORT SIMPSON
Region Canada
Timezone America/Yellowknife (UTC-6.0)
Plans Departing 11
Arriving 7
Stats Elevation 555 ft / 169 m (AMSL)
Location 61.760281° -121.236665°
Runways 1
Magnetic Variation 19.021° E
Sunrise 2018-05-25 10:49:52 UTC / 2018-05-25 04:49:52 Local
Sunset 2018-05-26 05:16:50 UTC / 2018-05-25 23:16:50 Local
Advertisement - Login to hide

Runways

ID Width Length Bearing (true) Bearing (mag) Surface Threshold Offset Overrun Length
13 150 ft / 46 m 5,986 ft / 1,825 m 156.01° 136.99° Asphalt 0 ft / 0 m 0 ft / 0 m
31 150 ft / 46 m 5,986 ft / 1,825 m 336.02° 317.00° Asphalt 0 ft / 0 m 0 ft / 0 m

Map

Weather


0- 5 10 15 20 25 30 35+ Temperature / ° C

Clouds and Precipitation
Forecast for 2018-05-25 12:00 UTC. Updated 6 hours ago

Ground ~20,000 ft ~40,000 ft Winds

METAR

CYFS 251700Z 32004KT 270V330 15SM BKN010 BKN210 13/10 A2967 RMK SC5CI1 CI TR CIG RAG SLP055 DENSITY ALT 800FT

TAF

TAF TAF CYFS 251138Z 2512/2524 VRB03KT P6SM SCT003 SCT012 TEMPO 2512/2514 1SM BR BKN003 FM251400 31006KT P6SM SCT015 TEMPO 2514/2516 BKN015 FM251600 31006KT P6SM SCT040 RMK NXT FCST BY 251800Z

Frequencies

Unicom 122.20 MHz FT SIMPSON RDO
Warning: Do not use this data for real-world aviation or navigation. No guarantee of current accuracy is given.